sensor_id;sensor_type;location;lat;lon;timestamp;temperature;humidity
33673;DHT22;20011;51.510;9.942;2023-08-01T00:01:48;19.20;99.90
33673;DHT22;20011;51.510;9.942;2023-08-01T00:04:15;18.90;99.90
33673;DHT22;20011;51.510;9.942;2023-08-01T00:06:43;18.90;99.90
33673;DHT22;20011;51.510;9.942;2023-08-01T00:09:10;18.90;99.90
33673;DHT22;20011;51.510;9.942;2023-08-01T00:11:37;18.90;99.90
33673;DHT22;20011;51.510;9.942;2023-08-01T00:14:03;19.00;99.90
33673;DHT22;20011;51.510;9.942;2023-08-01T00:16:30;18.90;99.90
33673;DHT22;20011;51.510;9.942;2023-08-01T00:18:59;19.00;99.90
33673;DHT22;20011;51.510;9.942;2023-08-01T00:21:26;19.00;99.90
33673;DHT22;20011;51.510;9.942;2023-08-01T00:23:52;19.00;99.90
33673;DHT22;20011;51.510;9.942;2023-08-01T00:26:19;19.00;99.90
33673;DHT22;20011;51.510;9.942;2023-08-01T00:28:46;18.90;99.90
33673;DHT22;20011;51.510;9.942;2023-08-01T00:31:13;18.90;99.90
33673;DHT22;20011;51.510;9.942;2023-08-01T00:36:08;18.90;99.90
33673;DHT22;20011;51.510;9.942;2023-08-01T00:38:36;18.90;99.90
33673;DHT22;20011;51.510;9.942;2023-08-01T00:41:03;18.90;99.90
33673;DHT22;20011;51.510;9.942;2023-08-01T00:43:30;18.90;99.90
33673;DHT22;20011;51.510;9.942;2023-08-01T00:45:59;18.90;99.90
33673;DHT22;20011;51.510;9.942;2023-08-01T00:48:29;18.90;99.90
33673;DHT22;20011;51.510;9.942;2023-08-01T00:50:58;18.90;99.90
33673;DHT22;20011;51.510;9.942;2023-08-01T00:53:26;18.90;99.90
33673;DHT22;20011;51.510;9.942;2023-08-01T00:55:54;17.90;99.90
33673;DHT22;20011;51.510;9.942;2023-08-01T00:58:21;19.00;99.90
33673;DHT22;20011;51.510;9.942;2023-08-01T01:00:48;18.90;99.90
33673;DHT22;20011;51.510;9.942;2023-08-01T01:03:16;18.90;99.90
33673;DHT22;20011;51.510;9.942;2023-08-01T01:06:01;18.90;99.90
33673;DHT22;20011;51.510;9.942;2023-08-01T01:08:29;19.00;99.90
33673;DHT22;20011;51.510;9.942;2023-08-01T01:10:56;18.90;99.90
33673;DHT22;20011;51.510;9.942;2023-08-01T01:13:23;18.90;99.90
33673;DHT22;20011;51.510;9.942;2023-08-01T01:15:50;18.90;99.90
33673;DHT22;20011;51.510;9.942;2023-08-01T01:18:17;18.90;99.90
33673;DHT22;20011;51.510;9.942;2023-08-01T01:20:44;18.90;99.90
33673;DHT22;20011;51.510;9.942;2023-08-01T01:23:11;18.90;99.90
33673;DHT22;20011;51.510;9.942;2023-08-01T01:25:39;19.00;99.90
33673;DHT22;20011;51.510;9.942;2023-08-01T01:30:35;18.90;99.90
33673;DHT22;20011;51.510;9.942;2023-08-01T01:33:03;18.90;99.90
33673;DHT22;20011;51.510;9.942;2023-08-01T01:35:33;18.90;99.90
33673;DHT22;20011;51.510;9.942;2023-08-01T01:38:01;18.90;99.90
33673;DHT22;20011;51.510;9.942;2023-08-01T01:40:32;18.90;99.90
33673;DHT22;20011;51.510;9.942;2023-08-01T01:43:00;18.90;99.90
33673;DHT22;20011;51.510;9.942;2023-08-01T01:45:27;18.90;99.90
33673;DHT22;20011;51.510;9.942;2023-08-01T01:47:54;18.90;99.90
33673;DHT22;20011;51.510;9.942;2023-08-01T01:50:21;18.90;99.90
33673;DHT22;20011;51.510;9.942;2023-08-01T01:52:48;18.90;99.90
33673;DHT22;20011;51.510;9.942;2023-08-01T01:55:15;18.80;99.90
33673;DHT22;20011;51.510;9.942;2023-08-01T01:57:42;18.80;99.90
33673;DHT22;20011;51.510;9.942;2023-08-01T02:00:09;18.80;99.90
33673;DHT22;20011;51.510;9.942;2023-08-01T02:02:39;18.80;99.90
33673;DHT22;20011;51.510;9.942;2023-08-01T02:05:07;18.80;99.90
33673;DHT22;20011;51.510;9.942;2023-08-01T02:07:34;18.80;99.90
33673;DHT22;20011;51.510;9.942;2023-08-01T02:12:32;18.80;99.90
33673;DHT22;20011;51.510;9.942;2023-08-01T02:14:58;18.80;99.90
33673;DHT22;20011;51.510;9.942;2023-08-01T02:17:26;18.80;99.90
33673;DHT22;20011;51.510;9.942;2023-08-01T02:19:53;18.80;99.90
33673;DHT22;20011;51.510;9.942;2023-08-01T02:22:20;18.80;99.90
33673;DHT22;20011;51.510;9.942;2023-08-01T02:24:47;18.80;99.90
33673;DHT22;20011;51.510;9.942;2023-08-01T02:27:14;18.80;99.90
33673;DHT22;20011;51.510;9.942;2023-08-01T02:29:41;18.80;99.90
33673;DHT22;20011;51.510;9.942;2023-08-01T02:32:08;18.80;99.90
33673;DHT22;20011;51.510;9.942;2023-08-01T02:34:35;18.80;99.90
33673;DHT22;20011;51.510;9.942;2023-08-01T02:37:03;18.80;99.90
33673;DHT22;20011;51.510;9.942;2023-08-01T02:39:30;18.80;99.90
33673;DHT22;20011;51.510;9.942;2023-08-01T02:41:57;18.80;99.90
33673;DHT22;20011;51.510;9.942;2023-08-01T02:44:23;18.80;99.90
33673;DHT22;20011;51.510;9.942;2023-08-01T02:46:50;18.80;99.90
33673;DHT22;20011;51.510;9.942;2023-08-01T02:49:17;18.80;99.90
33673;DHT22;20011;51.510;9.942;2023-08-01T02:51:44;18.80;99.90
33673;DHT22;20011;51.510;9.942;2023-08-01T02:54:11;18.70;99.90
33673;DHT22;20011;51.510;9.942;2023-08-01T02:56:38;18.70;99.90
33673;DHT22;20011;51.510;9.942;2023-08-01T02:59:09;18.70;99.90
33673;DHT22;20011;51.510;9.942;2023-08-01T03:01:36;18.70;99.90
33673;DHT22;20011;51.510;9.942;2023-08-01T03:04:05;18.70;99.90
33673;DHT22;20011;51.510;9.942;2023-08-01T03:06:33;18.70;99.90
33673;DHT22;20011;51.510;9.942;2023-08-01T03:09:00;19.00;99.90
33673;DHT22;20011;51.510;9.942;2023-08-01T03:11:27;18.70;99.90
33673;DHT22;20011;51.510;9.942;2023-08-01T03:13:54;18.60;99.90
33673;DHT22;20011;51.510;9.942;2023-08-01T03:16:21;18.60;99.90
33673;DHT22;20011;51.510;9.942;2023-08-01T03:21:16;18.60;99.90
33673;DHT22;20011;51.510;9.942;2023-08-01T03:23:43;18.70;99.90
33673;DHT22;20011;51.510;9.942;2023-08-01T03:26:10;18.60;99.90
33673;DHT22;20011;51.510;9.942;2023-08-01T03:28:37;18.70;99.90
33673;DHT22;20011;51.510;9.942;2023-08-01T03:31:05;18.60;99.90
33673;DHT22;20011;51.510;9.942;2023-08-01T03:33:33;18.60;99.90
33673;DHT22;20011;51.510;9.942;2023-08-01T03:36:01;18.60;99.90
33673;DHT22;20011;51.510;9.942;2023-08-01T03:38:28;18.60;99.90
33673;DHT22;20011;51.510;9.942;2023-08-01T03:43:22;18.60;99.90
33673;DHT22;20011;51.510;9.942;2023-08-01T03:45:51;18.60;99.90
33673;DHT22;20011;51.510;9.942;2023-08-01T03:50:49;18.60;99.90
33673;DHT22;20011;51.510;9.942;2023-08-01T03:53:16;18.60;99.90
33673;DHT22;20011;51.510;9.942;2023-08-01T03:55:44;18.60;99.90
33673;DHT22;20011;51.510;9.942;2023-08-01T03:58:11;18.60;99.90
33673;DHT22;20011;51.510;9.942;2023-08-01T04:00:38;18.60;99.90
33673;DHT22;20011;51.510;9.942;2023-08-01T04:03:05;18.60;99.90
33673;DHT22;20011;51.510;9.942;2023-08-01T04:05:32;18.60;99.90
33673;DHT22;20011;51.510;9.942;2023-08-01T04:07:59;18.60;99.90
33673;DHT22;20011;51.510;9.942;2023-08-01T04:10:26;18.60;99.90
33673;DHT22;20011;51.510;9.942;2023-08-01T04:12:53;18.60;99.90
33673;DHT22;20011;51.510;9.942;2023-08-01T04:15:20;18.60;99.90
33673;DHT22;20011;51.510;9.942;2023-08-01T04:17:46;18.60;99.90
33673;DHT22;20011;51.510;9.942;2023-08-01T04:20:14;18.60;99.90
33673;DHT22;20011;51.510;9.942;2023-08-01T04:22:41;18.60;99.90
33673;DHT22;20011;51.510;9.942;2023-08-01T04:25:08;18.60;99.90
33673;DHT22;20011;51.510;9.942;2023-08-01T04:30:03;18.60;99.90
33673;DHT22;20011;51.510;9.942;2023-08-01T04:32:30;18.60;99.90
33673;DHT22;20011;51.510;9.942;2023-08-01T04:34:57;18.60;99.90
33673;DHT22;20011;51.510;9.942;2023-08-01T04:42:20;18.60;99.90
33673;DHT22;20011;51.510;9.942;2023-08-01T04:44:46;18.60;99.90
33673;DHT22;20011;51.510;9.942;2023-08-01T04:47:14;18.60;99.90
33673;DHT22;20011;51.510;9.942;2023-08-01T04:49:41;18.60;99.90
33673;DHT22;20011;51.510;9.942;2023-08-01T04:52:08;18.60;99.90
33673;DHT22;20011;51.510;9.942;2023-08-01T04:54:35;18.60;99.90
33673;DHT22;20011;51.510;9.942;2023-08-01T04:57:02;18.60;99.90
33673;DHT22;20011;51.510;9.942;2023-08-01T04:59:29;18.50;99.90
33673;DHT22;20011;51.510;9.942;2023-08-01T05:01:56;18.50;99.90
33673;DHT22;20011;51.510;9.942;2023-08-01T05:04:24;18.50;99.90
33673;DHT22;20011;51.510;9.942;2023-08-01T05:06:51;18.50;99.90
33673;DHT22;20011;51.510;9.942;2023-08-01T05:09:18;18.50;99.90
33673;DHT22;20011;51.510;9.942;2023-08-01T05:11:45;18.50;99.90
33673;DHT22;20011;51.510;9.942;2023-08-01T05:14:12;18.50;99.90
33673;DHT22;20011;51.510;9.942;2023-08-01T05:16:39;18.50;99.90
33673;DHT22;20011;51.510;9.942;2023-08-01T05:19:27;18.50;99.90
33673;DHT22;20011;51.510;9.942;2023-08-01T05:21:54;18.50;99.90
33673;DHT22;20011;51.510;9.942;2023-08-01T05:26:49;18.50;99.90
33673;DHT22;20011;51.510;9.942;2023-08-01T05:29:16;18.50;99.90
33673;DHT22;20011;51.510;9.942;2023-08-01T05:31:43;18.50;99.90
33673;DHT22;20011;51.510;9.942;2023-08-01T05:36:37;18.50;99.90
33673;DHT22;20011;51.510;9.942;2023-08-01T05:39:04;18.50;99.90
33673;DHT22;20011;51.510;9.942;2023-08-01T05:41:31;18.50;99.90
33673;DHT22;20011;51.510;9.942;2023-08-01T05:43:58;18.50;99.90
33673;DHT22;20011;51.510;9.942;2023-08-01T05:46:25;18.50;99.90
33673;DHT22;20011;51.510;9.942;2023-08-01T05:51:20;18.50;99.90
33673;DHT22;20011;51.510;9.942;2023-08-01T05:53:47;18.50;99.90
33673;DHT22;20011;51.510;9.942;2023-08-01T05:56:14;18.40;99.90
33673;DHT22;20011;51.510;9.942;2023-08-01T05:58:40;18.50;99.90
33673;DHT22;20011;51.510;9.942;2023-08-01T06:01:09;18.50;99.90
33673;DHT22;20011;51.510;9.942;2023-08-01T06:03:37;18.50;99.90
33673;DHT22;20011;51.510;9.942;2023-08-01T06:06:04;18.50;99.90
33673;DHT22;20011;51.510;9.942;2023-08-01T06:08:31;18.50;99.90
33673;DHT22;20011;51.510;9.942;2023-08-01T06:10:58;18.40;99.90
33673;DHT22;20011;51.510;9.942;2023-08-01T06:13:25;18.30;99.90
33673;DHT22;20011;51.510;9.942;2023-08-01T06:18:20;18.20;99.90
33673;DHT22;20011;51.510;9.942;2023-08-01T06:23:14;18.00;99.90
33673;DHT22;20011;51.510;9.942;2023-08-01T06:25:41;17.90;99.90
33673;DHT22;20011;51.510;9.942;2023-08-01T06:28:08;17.90;99.90
33673;DHT22;20011;51.510;9.942;2023-08-01T06:30:35;17.80;99.90
33673;DHT22;20011;51.510;9.942;2023-08-01T06:33:02;17.80;99.90
33673;DHT22;20011;51.510;9.942;2023-08-01T06:35:29;17.80;99.90
33673;DHT22;20011;51.510;9.942;2023-08-01T06:37:56;17.80;99.90
33673;DHT22;20011;51.510;9.942;2023-08-01T06:40:22;17.80;99.90
33673;DHT22;20011;51.510;9.942;2023-08-01T06:42:50;17.80;99.90
33673;DHT22;20011;51.510;9.942;2023-08-01T06:45:17;17.80;99.90
33673;DHT22;20011;51.510;9.942;2023-08-01T06:47:44;17.80;99.90
33673;DHT22;20011;51.510;9.942;2023-08-01T06:50:11;17.80;99.90
33673;DHT22;20011;51.510;9.942;2023-08-01T06:52:38;17.80;99.90
33673;DHT22;20011;51.510;9.942;2023-08-01T06:55:05;17.80;99.90
33673;DHT22;20011;51.510;9.942;2023-08-01T06:57:32;17.80;99.90
33673;DHT22;20011;51.510;9.942;2023-08-01T06:59:59;17.80;99.90
33673;DHT22;20011;51.510;9.942;2023-08-01T07:02:25;17.80;99.90
33673;DHT22;20011;51.510;9.942;2023-08-01T07:04:53;17.90;99.90
33673;DHT22;20011;51.510;9.942;2023-08-01T07:07:19;17.80;99.90
33673;DHT22;20011;51.510;9.942;2023-08-01T07:09:46;17.90;99.90
33673;DHT22;20011;51.510;9.942;2023-08-01T07:12:13;17.90;99.90
33673;DHT22;20011;51.510;9.942;2023-08-01T07:14:41;17.90;99.90
33673;DHT22;20011;51.510;9.942;2023-08-01T07:17:08;17.80;99.90
33673;DHT22;20011;51.510;9.942;2023-08-01T07:19:34;17.90;99.90
33673;DHT22;20011;51.510;9.942;2023-08-01T07:22:04;17.90;99.90
33673;DHT22;20011;51.510;9.942;2023-08-01T07:24:31;17.80;99.90
33673;DHT22;20011;51.510;9.942;2023-08-01T07:26:58;17.90;99.90
33673;DHT22;20011;51.510;9.942;2023-08-01T07:29:25;17.90;99.90
33673;DHT22;20011;51.510;9.942;2023-08-01T07:31:52;17.90;99.90
33673;DHT22;20011;51.510;9.942;2023-08-01T07:34:19;17.90;99.90
33673;DHT22;20011;51.510;9.942;2023-08-01T07:36:49;17.90;99.90
33673;DHT22;20011;51.510;9.942;2023-08-01T07:39:16;17.90;99.90
33673;DHT22;20011;51.510;9.942;2023-08-01T07:41:43;18.00;99.90
33673;DHT22;20011;51.510;9.942;2023-08-01T07:46:38;18.10;99.90
33673;DHT22;20011;51.510;9.942;2023-08-01T07:49:05;18.10;99.90
33673;DHT22;20011;51.510;9.942;2023-08-01T07:51:32;18.20;99.90
33673;DHT22;20011;51.510;9.942;2023-08-01T07:54:00;18.20;99.90
33673;DHT22;20011;51.510;9.942;2023-08-01T07:56:27;18.20;99.90
33673;DHT22;20011;51.510;9.942;2023-08-01T07:58:54;18.20;99.90
33673;DHT22;20011;51.510;9.942;2023-08-01T08:01:21;18.30;99.90
33673;DHT22;20011;51.510;9.942;2023-08-01T08:03:48;18.30;99.90
33673;DHT22;20011;51.510;9.942;2023-08-01T08:06:15;18.30;99.90
33673;DHT22;20011;51.510;9.942;2023-08-01T08:08:42;18.30;99.90
33673;DHT22;20011;51.510;9.942;2023-08-01T08:11:08;18.30;99.90
33673;DHT22;20011;51.510;9.942;2023-08-01T08:13:35;18.40;99.90
33673;DHT22;20011;51.510;9.942;2023-08-01T08:16:02;18.50;99.90
33673;DHT22;20011;51.510;9.942;2023-08-01T08:18:31;18.50;99.90
33673;DHT22;20011;51.510;9.942;2023-08-01T08:20:58;18.60;99.90
33673;DHT22;20011;51.510;9.942;2023-08-01T08:23:25;18.60;99.90
33673;DHT22;20011;51.510;9.942;2023-08-01T08:25:53;18.60;99.90
33673;DHT22;20011;51.510;9.942;2023-08-01T08:28:28;18.60;99.90
33673;DHT22;20011;51.510;9.942;2023-08-01T08:33:24;18.70;99.90
33673;DHT22;20011;51.510;9.942;2023-08-01T08:35:51;18.70;99.90
33673;DHT22;20011;51.510;9.942;2023-08-01T08:43:26;18.80;99.90
33673;DHT22;20011;51.510;9.942;2023-08-01T08:45:56;18.80;99.90
33673;DHT22;20011;51.510;9.942;2023-08-01T08:48:24;18.80;99.90
33673;DHT22;20011;51.510;9.942;2023-08-01T08:50:52;18.90;99.90
33673;DHT22;20011;51.510;9.942;2023-08-01T08:53:21;18.80;99.90
33673;DHT22;20011;51.510;9.942;2023-08-01T08:55:48;18.90;99.90
33673;DHT22;20011;51.510;9.942;2023-08-01T08:58:16;18.90;99.90
33673;DHT22;20011;51.510;9.942;2023-08-01T09:00:44;18.90;99.90
33673;DHT22;20011;51.510;9.942;2023-08-01T09:05:49;19.20;99.90
33673;DHT22;20011;51.510;9.942;2023-08-01T09:08:21;19.10;99.90
33673;DHT22;20011;51.510;9.942;2023-08-01T09:10:48;19.20;99.90
33673;DHT22;20011;51.510;9.942;2023-08-01T09:13:15;19.20;99.90
33673;DHT22;20011;51.510;9.942;2023-08-01T09:15:42;19.10;99.90
33673;DHT22;20011;51.510;9.942;2023-08-01T09:18:10;19.10;99.90
33673;DHT22;20011;51.510;9.942;2023-08-01T09:20:47;19.10;99.90
33673;DHT22;20011;51.510;9.942;2023-08-01T09:23:17;19.10;99.90
33673;DHT22;20011;51.510;9.942;2023-08-01T09:25:44;19.00;99.90
33673;DHT22;20011;51.510;9.942;2023-08-01T09:28:19;19.00;99.90
33673;DHT22;20011;51.510;9.942;2023-08-01T09:30:48;19.00;99.90
33673;DHT22;20011;51.510;9.942;2023-08-01T09:33:16;19.10;99.90
33673;DHT22;20011;51.510;9.942;2023-08-01T09:35:43;19.10;99.90
33673;DHT22;20011;51.510;9.942;2023-08-01T09:38:13;19.10;99.90
33673;DHT22;20011;51.510;9.942;2023-08-01T09:40:43;19.20;99.90
33673;DHT22;20011;51.510;9.942;2023-08-01T09:43:11;19.20;99.90
33673;DHT22;20011;51.510;9.942;2023-08-01T09:45:52;19.30;99.90
33673;DHT22;20011;51.510;9.942;2023-08-01T09:48:23;19.40;99.90
33673;DHT22;20011;51.510;9.942;2023-08-01T09:50:51;19.40;99.90
33673;DHT22;20011;51.510;9.942;2023-08-01T09:53:19;19.40;99.90
33673;DHT22;20011;51.510;9.942;2023-08-01T09:55:49;19.50;99.90
33673;DHT22;20011;51.510;9.942;2023-08-01T09:58:21;19.60;99.90
33673;DHT22;20011;51.510;9.942;2023-08-01T10:00:49;19.60;99.90
33673;DHT22;20011;51.510;9.942;2023-08-01T10:03:17;19.60;99.90
33673;DHT22;20011;51.510;9.942;2023-08-01T10:05:48;19.60;99.90
33673;DHT22;20011;51.510;9.942;2023-08-01T10:08:17;19.70;99.90
33673;DHT22;20011;51.510;9.942;2023-08-01T10:10:46;19.70;99.90
33673;DHT22;20011;51.510;9.942;2023-08-01T10:13:14;19.60;99.90
33673;DHT22;20011;51.510;9.942;2023-08-01T10:15:41;19.70;99.90
33673;DHT22;20011;51.510;9.942;2023-08-01T10:18:08;19.70;99.90
33673;DHT22;20011;51.510;9.942;2023-08-01T10:20:37;19.80;99.90
33673;DHT22;20011;51.510;9.942;2023-08-01T10:23:05;19.80;99.90
33673;DHT22;20011;51.510;9.942;2023-08-01T10:25:32;19.80;99.90
33673;DHT22;20011;51.510;9.942;2023-08-01T10:28:01;19.80;99.90
33673;DHT22;20011;51.510;9.942;2023-08-01T10:30:29;19.80;99.90
33673;DHT22;20011;51.510;9.942;2023-08-01T10:32:58;19.80;99.90
33673;DHT22;20011;51.510;9.942;2023-08-01T10:35:38;19.90;99.90
33673;DHT22;20011;51.510;9.942;2023-08-01T10:38:06;20.00;99.90
33673;DHT22;20011;51.510;9.942;2023-08-01T10:40:34;20.10;99.90
33673;DHT22;20011;51.510;9.942;2023-08-01T10:43:01;20.20;99.90
33673;DHT22;20011;51.510;9.942;2023-08-01T10:45:28;20.10;99.90
33673;DHT22;20011;51.510;9.942;2023-08-01T10:48:07;20.10;99.90
33673;DHT22;20011;51.510;9.942;2023-08-01T10:50:34;20.10;99.90
33673;DHT22;20011;51.510;9.942;2023-08-01T10:53:07;20.10;99.90
33673;DHT22;20011;51.510;9.942;2023-08-01T10:55:45;20.10;99.90
33673;DHT22;20011;51.510;9.942;2023-08-01T10:58:13;20.10;99.90
33673;DHT22;20011;51.510;9.942;2023-08-01T11:00:42;20.20;99.90
33673;DHT22;20011;51.510;9.942;2023-08-01T11:03:09;20.10;99.90
33673;DHT22;20011;51.510;9.942;2023-08-01T11:05:57;20.10;99.90
33673;DHT22;20011;51.510;9.942;2023-08-01T11:08:34;20.00;99.90
33673;DHT22;20011;51.510;9.942;2023-08-01T11:11:02;20.00;99.90
33673;DHT22;20011;51.510;9.942;2023-08-01T11:13:29;20.00;99.90
33673;DHT22;20011;51.510;9.942;2023-08-01T11:15:57;20.00;99.90
33673;DHT22;20011;51.510;9.942;2023-08-01T11:18:24;20.00;99.90
33673;DHT22;20011;51.510;9.942;2023-08-01T11:20:51;19.90;99.90
33673;DHT22;20011;51.510;9.942;2023-08-01T11:23:18;20.00;99.90
33673;DHT22;20011;51.510;9.942;2023-08-01T11:25:45;20.00;99.90
33673;DHT22;20011;51.510;9.942;2023-08-01T11:28:16;20.10;99.90
33673;DHT22;20011;51.510;9.942;2023-08-01T11:30:44;20.20;99.90
33673;DHT22;20011;51.510;9.942;2023-08-01T11:33:20;20.20;99.90
33673;DHT22;20011;51.510;9.942;2023-08-01T11:35:55;20.20;99.90
33673;DHT22;20011;51.510;9.942;2023-08-01T11:38:27;20.20;99.90
33673;DHT22;20011;51.510;9.942;2023-08-01T11:40:57;20.30;99.90
33673;DHT22;20011;51.510;9.942;2023-08-01T11:43:24;20.30;99.90
33673;DHT22;20011;51.510;9.942;2023-08-01T11:45:56;20.20;99.90
33673;DHT22;20011;51.510;9.942;2023-08-01T11:48:24;20.20;99.90
33673;DHT22;20011;51.510;9.942;2023-08-01T11:51:01;20.20;99.90
33673;DHT22;20011;51.510;9.942;2023-08-01T11:53:29;20.20;99.90
33673;DHT22;20011;51.510;9.942;2023-08-01T11:55:57;20.20;99.90
33673;DHT22;20011;51.510;9.942;2023-08-01T11:58:32;20.10;99.90
33673;DHT22;20011;51.510;9.942;2023-08-01T12:01:10;20.10;99.90
33673;DHT22;20011;51.510;9.942;2023-08-01T12:03:49;20.20;99.90
33673;DHT22;20011;51.510;9.942;2023-08-01T12:06:17;20.30;99.90
33673;DHT22;20011;51.510;9.942;2023-08-01T12:08:46;20.40;99.90
33673;DHT22;20011;51.510;9.942;2023-08-01T12:11:21;20.40;99.90
33673;DHT22;20011;51.510;9.942;2023-08-01T12:13:48;20.50;99.90
33673;DHT22;20011;51.510;9.942;2023-08-01T12:16:25;20.50;99.90
33673;DHT22;20011;51.510;9.942;2023-08-01T12:18:52;20.40;99.90
33673;DHT22;20011;51.510;9.942;2023-08-01T12:21:27;20.40;99.90
33673;DHT22;20011;51.510;9.942;2023-08-01T12:23:55;20.40;99.90
33673;DHT22;20011;51.510;9.942;2023-08-01T12:26:23;20.50;99.90
33673;DHT22;20011;51.510;9.942;2023-08-01T12:28:50;20.50;99.90
33673;DHT22;20011;51.510;9.942;2023-08-01T12:31:18;20.60;99.90
33673;DHT22;20011;51.510;9.942;2023-08-01T12:33:46;20.70;99.90
33673;DHT22;20011;51.510;9.942;2023-08-01T12:36:13;20.70;99.90
33673;DHT22;20011;51.510;9.942;2023-08-01T12:38:41;20.70;99.90
33673;DHT22;20011;51.510;9.942;2023-08-01T12:41:08;20.80;99.90
33673;DHT22;20011;51.510;9.942;2023-08-01T12:43:35;20.60;99.90
33673;DHT22;20011;51.510;9.942;2023-08-01T12:46:03;20.80;99.90
33673;DHT22;20011;51.510;9.942;2023-08-01T12:48:30;20.90;99.90
33673;DHT22;20011;51.510;9.942;2023-08-01T12:50:57;20.90;99.90
33673;DHT22;20011;51.510;9.942;2023-08-01T12:53:24;20.90;99.90
33673;DHT22;20011;51.510;9.942;2023-08-01T12:55:57;20.90;99.90
33673;DHT22;20011;51.510;9.942;2023-08-01T12:58:25;20.90;99.90
33673;DHT22;20011;51.510;9.942;2023-08-01T13:00:52;20.90;99.90
33673;DHT22;20011;51.510;9.942;2023-08-01T13:03:19;20.80;99.90
33673;DHT22;20011;51.510;9.942;2023-08-01T13:05:46;20.70;99.90
33673;DHT22;20011;51.510;9.942;2023-08-01T13:08:13;20.70;99.90
33673;DHT22;20011;51.510;9.942;2023-08-01T13:10:40;20.70;99.90
33673;DHT22;20011;51.510;9.942;2023-08-01T13:13:07;20.70;99.90
33673;DHT22;20011;51.510;9.942;2023-08-01T13:15:34;20.70;99.90
33673;DHT22;20011;51.510;9.942;2023-08-01T13:18:01;20.70;99.90
33673;DHT22;20011;51.510;9.942;2023-08-01T13:20:29;20.70;99.90
33673;DHT22;20011;51.510;9.942;2023-08-01T13:22:58;20.70;99.90
33673;DHT22;20011;51.510;9.942;2023-08-01T13:25:25;20.70;99.90
33673;DHT22;20011;51.510;9.942;2023-08-01T13:27:52;20.80;99.90
33673;DHT22;20011;51.510;9.942;2023-08-01T13:30:19;20.80;99.90
33673;DHT22;20011;51.510;9.942;2023-08-01T13:32:47;20.80;99.90
33673;DHT22;20011;51.510;9.942;2023-08-01T13:35:14;20.70;99.90
33673;DHT22;20011;51.510;9.942;2023-08-01T13:37:42;20.70;99.90
33673;DHT22;20011;51.510;9.942;2023-08-01T13:40:09;20.80;99.90
33673;DHT22;20011;51.510;9.942;2023-08-01T13:42:39;20.70;99.90
33673;DHT22;20011;51.510;9.942;2023-08-01T13:45:07;20.60;99.90
33673;DHT22;20011;51.510;9.942;2023-08-01T13:47:33;20.50;99.90
33673;DHT22;20011;51.510;9.942;2023-08-01T13:50:01;20.30;99.90
33673;DHT22;20011;51.510;9.942;2023-08-01T13:52:28;20.20;99.90
33673;DHT22;20011;51.510;9.942;2023-08-01T13:54:55;20.10;99.90
33673;DHT22;20011;51.510;9.942;2023-08-01T13:57:22;20.10;99.90
33673;DHT22;20011;51.510;9.942;2023-08-01T13:59:50;20.10;99.90
33673;DHT22;20011;51.510;9.942;2023-08-01T14:02:37;20.10;99.90
33673;DHT22;20011;51.510;9.942;2023-08-01T14:05:04;20.20;99.90
33673;DHT22;20011;51.510;9.942;2023-08-01T14:07:34;20.20;99.90
33673;DHT22;20011;51.510;9.942;2023-08-01T14:10:01;20.30;99.90
33673;DHT22;20011;51.510;9.942;2023-08-01T14:12:28;20.30;99.90
33673;DHT22;20011;51.510;9.942;2023-08-01T14:14:54;20.30;99.90
33673;DHT22;20011;51.510;9.942;2023-08-01T14:17:21;20.40;99.90
33673;DHT22;20011;51.510;9.942;2023-08-01T14:19:48;20.50;99.90
33673;DHT22;20011;51.510;9.942;2023-08-01T14:22:15;20.50;99.90
33673;DHT22;20011;51.510;9.942;2023-08-01T14:24:42;20.50;99.90
33673;DHT22;20011;51.510;9.942;2023-08-01T14:27:09;20.60;99.90
33673;DHT22;20011;51.510;9.942;2023-08-01T14:29:36;20.60;99.90
33673;DHT22;20011;51.510;9.942;2023-08-01T14:32:04;20.60;99.90
33673;DHT22;20011;51.510;9.942;2023-08-01T14:34:32;20.60;99.90
33673;DHT22;20011;51.510;9.942;2023-08-01T14:36:58;20.60;99.90
33673;DHT22;20011;51.510;9.942;2023-08-01T14:39:25;20.60;99.90
33673;DHT22;20011;51.510;9.942;2023-08-01T14:41:52;20.60;99.90
33673;DHT22;20011;51.510;9.942;2023-08-01T14:44:31;20.60;99.90
33673;DHT22;20011;51.510;9.942;2023-08-01T14:46:58;20.70;99.90
33673;DHT22;20011;51.510;9.942;2023-08-01T14:49:25;20.80;99.90
33673;DHT22;20011;51.510;9.942;2023-08-01T14:51:54;20.70;99.90
33673;DHT22;20011;51.510;9.942;2023-08-01T14:54:21;20.80;99.90
33673;DHT22;20011;51.510;9.942;2023-08-01T14:57:05;20.70;99.90
33673;DHT22;20011;51.510;9.942;2023-08-01T14:59:32;20.70;99.90
33673;DHT22;20011;51.510;9.942;2023-08-01T15:01:59;20.70;99.90
33673;DHT22;20011;51.510;9.942;2023-08-01T15:04:26;20.60;99.90
33673;DHT22;20011;51.510;9.942;2023-08-01T15:06:53;20.70;99.90
33673;DHT22;20011;51.510;9.942;2023-08-01T15:09:21;20.60;99.90
33673;DHT22;20011;51.510;9.942;2023-08-01T15:11:48;20.60;99.90
33673;DHT22;20011;51.510;9.942;2023-08-01T15:14:15;20.60;99.90
33673;DHT22;20011;51.510;9.942;2023-08-01T15:16:42;20.60;99.90
33673;DHT22;20011;51.510;9.942;2023-08-01T15:19:11;20.50;99.90
33673;DHT22;20011;51.510;9.942;2023-08-01T15:21:38;20.60;99.90
33673;DHT22;20011;51.510;9.942;2023-08-01T15:24:06;20.60;99.90
33673;DHT22;20011;51.510;9.942;2023-08-01T15:26:33;20.60;99.90
33673;DHT22;20011;51.510;9.942;2023-08-01T15:29:00;20.60;99.90
33673;DHT22;20011;51.510;9.942;2023-08-01T15:31:27;20.70;99.90
33673;DHT22;20011;51.510;9.942;2023-08-01T15:33:54;20.70;99.90
33673;DHT22;20011;51.510;9.942;2023-08-01T15:36:28;20.70;99.90
33673;DHT22;20011;51.510;9.942;2023-08-01T15:38:56;20.70;99.90
33673;DHT22;20011;51.510;9.942;2023-08-01T15:41:24;20.60;99.90
33673;DHT22;20011;51.510;9.942;2023-08-01T15:43:51;20.60;99.90
33673;DHT22;20011;51.510;9.942;2023-08-01T15:46:18;20.70;99.90
33673;DHT22;20011;51.510;9.942;2023-08-01T15:48:46;20.70;99.90
33673;DHT22;20011;51.510;9.942;2023-08-01T15:51:13;20.70;99.90
33673;DHT22;20011;51.510;9.942;2023-08-01T15:53:40;20.80;99.90
33673;DHT22;20011;51.510;9.942;2023-08-01T15:56:08;20.70;99.90
33673;DHT22;20011;51.510;9.942;2023-08-01T15:58:35;20.70;99.90
33673;DHT22;20011;51.510;9.942;2023-08-01T16:01:02;20.70;99.90
33673;DHT22;20011;51.510;9.942;2023-08-01T16:03:30;20.70;99.90
33673;DHT22;20011;51.510;9.942;2023-08-01T16:05:57;20.80;99.90
33673;DHT22;20011;51.510;9.942;2023-08-01T16:08:24;20.80;99.90
33673;DHT22;20011;51.510;9.942;2023-08-01T16:10:54;20.70;99.90
33673;DHT22;20011;51.510;9.942;2023-08-01T16:13:21;20.70;99.90
33673;DHT22;20011;51.510;9.942;2023-08-01T16:15:49;20.70;99.90
33673;DHT22;20011;51.510;9.942;2023-08-01T16:18:19;20.70;99.90
33673;DHT22;20011;51.510;9.942;2023-08-01T16:20:46;20.70;99.90
33673;DHT22;20011;51.510;9.942;2023-08-01T16:23:13;20.70;99.90